Terminal Aerodrome Forecast
Issued by NWS

Home | Current Version | Previous Version | Text Only | Print | Product List | Glossary On
Versions: 1 2 3 4 5 6 7 8 9 10 11 12 13 14 15 16 17 18 19 20 21 22 23 24 25 26 27 28 29 30
000
FTUS44 KCRP 241728
TAFLRD
TAF
KLRD 241728Z 2418/2518 15008KT P6SM OVC020
     FM242100 13010KT P6SM SCT035
     FM250700 14008KT P6SM SCT015
     FM250900 14006KT P6SM OVC015
      TEMPO 2511/2515 4SM BR OVC009
     FM251600 12005KT P6SM BKN015 BKN035=

USA.gov is the U.S. government's official web portal to all federal, state and local government web resources and services.